sensor_id;sensor_type;location;lat;lon;timestamp;pressure;altitude;pressure_sealevel;temperature;humidity
50310;BME280;36207;51.850;21.698;2023-03-25T00:02:09;98703.52;;;12.18;73.29
50310;BME280;36207;51.850;21.698;2023-03-25T00:04:36;98708.19;;;12.12;73.29
50310;BME280;36207;51.850;21.698;2023-03-25T00:07:03;98702.71;;;12.06;73.31
50310;BME280;36207;51.850;21.698;2023-03-25T00:09:30;98695.43;;;12.01;73.27
50310;BME280;36207;51.850;21.698;2023-03-25T00:11:59;98691.50;;;11.95;73.26
50310;BME280;36207;51.850;21.698;2023-03-25T00:14:25;98694.55;;;11.88;73.43
50310;BME280;36207;51.850;21.698;2023-03-25T00:16:51;98700.67;;;11.84;73.25
50310;BME280;36207;51.850;21.698;2023-03-25T00:19:18;98695.71;;;11.80;73.43
50310;BME280;36207;51.850;21.698;2023-03-25T00:21:47;98697.63;;;11.78;73.47
50310;BME280;36207;51.850;21.698;2023-03-25T00:24:16;98700.34;;;11.76;73.38
50310;BME280;36207;51.850;21.698;2023-03-25T00:26:44;98704.77;;;11.71;73.40
50310;BME280;36207;51.850;21.698;2023-03-25T00:29:14;98711.24;;;11.64;73.40
50310;BME280;36207;51.850;21.698;2023-03-25T00:31:41;98714.77;;;11.57;73.35
50310;BME280;36207;51.850;21.698;2023-03-25T00:34:08;98709.56;;;11.52;73.48
50310;BME280;36207;51.850;21.698;2023-03-25T00:36:35;98709.71;;;11.50;73.68
50310;BME280;36207;51.850;21.698;2023-03-25T00:39:03;98712.81;;;11.48;73.74
50310;BME280;36207;51.850;21.698;2023-03-25T00:41:29;98712.41;;;11.44;73.74
50310;BME280;36207;51.850;21.698;2023-03-25T00:43:59;98708.89;;;11.41;73.90
50310;BME280;36207;51.850;21.698;2023-03-25T00:46:28;98705.46;;;11.39;73.90
50310;BME280;36207;51.850;21.698;2023-03-25T00:48:56;98704.65;;;11.37;73.97
50310;BME280;36207;51.850;21.698;2023-03-25T00:51:24;98707.53;;;11.36;74.02
50310;BME280;36207;51.850;21.698;2023-03-25T00:53:52;98713.27;;;11.33;73.88
50310;BME280;36207;51.850;21.698;2023-03-25T00:56:20;98709.57;;;11.28;73.97
50310;BME280;36207;51.850;21.698;2023-03-25T00:58:46;98719.50;;;11.25;73.92
50310;BME280;36207;51.850;21.698;2023-03-25T01:01:15;98729.00;;;11.23;74.09
50310;BME280;36207;51.850;21.698;2023-03-25T01:03:44;98723.17;;;11.21;74.06
50310;BME280;36207;51.850;21.698;2023-03-25T01:06:15;98720.34;;;11.21;74.07
50310;BME280;36207;51.850;21.698;2023-03-25T01:08:43;98721.35;;;11.23;74.20
50310;BME280;36207;51.850;21.698;2023-03-25T01:11:21;98712.46;;;11.24;74.28
50310;BME280;36207;51.850;21.698;2023-03-25T01:13:48;98709.91;;;11.24;74.39
50310;BME280;36207;51.850;21.698;2023-03-25T01:16:14;98699.39;;;11.26;74.30
50310;BME280;36207;51.850;21.698;2023-03-25T01:18:40;98684.34;;;11.26;74.39
50310;BME280;36207;51.850;21.698;2023-03-25T01:21:07;98685.59;;;11.29;74.41
50310;BME280;36207;51.850;21.698;2023-03-25T01:23:33;98694.71;;;11.31;74.53
50310;BME280;36207;51.850;21.698;2023-03-25T01:26:00;98691.16;;;11.31;74.46
50310;BME280;36207;51.850;21.698;2023-03-25T01:28:26;98696.05;;;11.30;74.57
50310;BME280;36207;51.850;21.698;2023-03-25T01:31:02;98704.63;;;11.29;74.74
50310;BME280;36207;51.850;21.698;2023-03-25T01:33:30;98705.20;;;11.30;74.59
50310;BME280;36207;51.850;21.698;2023-03-25T01:35:58;98702.84;;;11.32;74.65
50310;BME280;36207;51.850;21.698;2023-03-25T01:38:24;98697.21;;;11.32;74.55
50310;BME280;36207;51.850;21.698;2023-03-25T01:40:51;98694.61;;;11.33;74.60
50310;BME280;36207;51.850;21.698;2023-03-25T01:43:19;98691.26;;;11.30;74.49
50310;BME280;36207;51.850;21.698;2023-03-25T01:45:45;98694.93;;;11.27;74.56
50310;BME280;36207;51.850;21.698;2023-03-25T01:48:16;98694.38;;;11.23;74.51
50310;BME280;36207;51.850;21.698;2023-03-25T01:50:48;98695.77;;;11.21;74.54
50310;BME280;36207;51.850;21.698;2023-03-25T01:53:16;98689.40;;;11.19;74.51
50310;BME280;36207;51.850;21.698;2023-03-25T01:55:43;98685.95;;;11.20;74.61
50310;BME280;36207;51.850;21.698;2023-03-25T01:58:14;98683.80;;;11.19;74.73
50310;BME280;36207;51.850;21.698;2023-03-25T02:00:41;98683.14;;;11.19;74.60
50310;BME280;36207;51.850;21.698;2023-03-25T02:03:10;98683.48;;;11.17;74.55
50310;BME280;36207;51.850;21.698;2023-03-25T02:08:55;98682.36;;;11.12;74.69
50310;BME280;36207;51.850;21.698;2023-03-25T02:11:23;98681.81;;;11.14;74.70
50310;BME280;36207;51.850;21.698;2023-03-25T02:13:56;98679.92;;;11.14;74.74
50310;BME280;36207;51.850;21.698;2023-03-25T02:16:25;98677.39;;;11.12;74.61
50310;BME280;36207;51.850;21.698;2023-03-25T02:19:19;98673.52;;;11.08;74.64
50310;BME280;36207;51.850;21.698;2023-03-25T02:38:48;98683.31;;;10.73;74.53
50310;BME280;36207;51.850;21.698;2023-03-25T02:44:11;98689.66;;;10.60;74.54
50310;BME280;36207;51.850;21.698;2023-03-25T02:46:45;98690.70;;;10.55;74.55
50310;BME280;36207;51.850;21.698;2023-03-25T02:49:20;98691.39;;;10.51;74.63
50310;BME280;36207;51.850;21.698;2023-03-25T02:54:34;98693.63;;;10.43;74.60
50310;BME280;36207;51.850;21.698;2023-03-25T02:57:05;98694.59;;;10.38;74.70
50310;BME280;36207;51.850;21.698;2023-03-25T02:59:33;98695.86;;;10.34;74.69
50310;BME280;36207;51.850;21.698;2023-03-25T03:02:06;98693.61;;;10.33;74.67
50310;BME280;36207;51.850;21.698;2023-03-25T03:04:48;98687.95;;;10.32;74.55
50310;BME280;36207;51.850;21.698;2023-03-25T03:07:23;98690.30;;;10.32;74.42
50310;BME280;36207;51.850;21.698;2023-03-25T03:10:21;98681.27;;;10.29;74.34
50310;BME280;36207;51.850;21.698;2023-03-25T03:13:08;98686.42;;;10.24;74.43
50310;BME280;36207;51.850;21.698;2023-03-25T03:18:43;98696.27;;;10.11;74.55
50310;BME280;36207;51.850;21.698;2023-03-25T03:21:27;98703.29;;;10.05;74.62
50310;BME280;36207;51.850;21.698;2023-03-25T03:24:20;98703.21;;;10.01;74.71
50310;BME280;36207;51.850;21.698;2023-03-25T03:29:28;98699.08;;;9.93;74.78
50310;BME280;36207;51.850;21.698;2023-03-25T03:32:08;98703.77;;;9.89;74.86
50310;BME280;36207;51.850;21.698;2023-03-25T03:35:45;98707.95;;;9.82;74.93
50310;BME280;36207;51.850;21.698;2023-03-25T03:38:01;98711.44;;;9.75;74.75
50310;BME280;36207;51.850;21.698;2023-03-25T03:40:31;98713.78;;;9.72;74.84
50310;BME280;36207;51.850;21.698;2023-03-25T03:43:29;98715.54;;;9.68;74.86
50310;BME280;36207;51.850;21.698;2023-03-25T03:46:04;98718.16;;;9.65;74.94
50310;BME280;36207;51.850;21.698;2023-03-25T03:48:46;98717.59;;;9.61;74.90
50310;BME280;36207;51.850;21.698;2023-03-25T03:51:18;98721.56;;;9.57;75.03
50310;BME280;36207;51.850;21.698;2023-03-25T03:53:53;98716.93;;;9.53;75.01
50310;BME280;36207;51.850;21.698;2023-03-25T03:56:48;98719.38;;;9.50;75.01
50310;BME280;36207;51.850;21.698;2023-03-25T04:02:03;98722.83;;;9.45;75.10
50310;BME280;36207;51.850;21.698;2023-03-25T04:04:31;98718.97;;;9.43;75.15
50310;BME280;36207;51.850;21.698;2023-03-25T04:07:03;98717.53;;;9.40;75.14
50310;BME280;36207;51.850;21.698;2023-03-25T04:12:31;98715.17;;;9.30;75.15
50310;BME280;36207;51.850;21.698;2023-03-25T04:15:00;98716.89;;;9.26;75.14
50310;BME280;36207;51.850;21.698;2023-03-25T04:17:28;98718.41;;;9.22;74.87
50310;BME280;36207;51.850;21.698;2023-03-25T04:20:00;98716.17;;;9.14;74.82
50310;BME280;36207;51.850;21.698;2023-03-25T04:22:31;98722.84;;;9.11;75.07
50310;BME280;36207;51.850;21.698;2023-03-25T04:24:59;98718.95;;;9.08;75.16
50310;BME280;36207;51.850;21.698;2023-03-25T04:27:25;98719.79;;;9.04;75.24
50310;BME280;36207;51.850;21.698;2023-03-25T04:29:54;98731.45;;;9.00;75.07
50310;BME280;36207;51.850;21.698;2023-03-25T04:32:22;98734.42;;;8.95;75.03
50310;BME280;36207;51.850;21.698;2023-03-25T04:34:48;98733.52;;;8.90;75.05
50310;BME280;36207;51.850;21.698;2023-03-25T04:37:14;98748.25;;;8.86;75.15
50310;BME280;36207;51.850;21.698;2023-03-25T04:39:40;98753.84;;;8.82;75.05
50310;BME280;36207;51.850;21.698;2023-03-25T04:42:06;98753.21;;;8.78;75.16
50310;BME280;36207;51.850;21.698;2023-03-25T04:44:33;98752.16;;;8.71;75.19
50310;BME280;36207;51.850;21.698;2023-03-25T04:47:06;98753.73;;;8.65;75.17
50310;BME280;36207;51.850;21.698;2023-03-25T04:49:34;98752.91;;;8.61;75.23
50310;BME280;36207;51.850;21.698;2023-03-25T04:52:00;98753.73;;;8.59;75.22
50310;BME280;36207;51.850;21.698;2023-03-25T04:54:28;98750.61;;;8.57;75.22
50310;BME280;36207;51.850;21.698;2023-03-25T04:56:54;98756.95;;;8.56;75.35
50310;BME280;36207;51.850;21.698;2023-03-25T04:59:21;98761.48;;;8.55;75.37
50310;BME280;36207;51.850;21.698;2023-03-25T05:01:48;98760.14;;;8.49;75.37
50310;BME280;36207;51.850;21.698;2023-03-25T05:04:15;98758.14;;;8.47;75.41
50310;BME280;36207;51.850;21.698;2023-03-25T05:06:44;98757.48;;;8.47;75.56
50310;BME280;36207;51.850;21.698;2023-03-25T05:09:19;98754.91;;;8.49;75.63
50310;BME280;36207;51.850;21.698;2023-03-25T05:11:47;98752.84;;;8.53;75.62
50310;BME280;36207;51.850;21.698;2023-03-25T05:14:16;98763.43;;;8.58;75.69
50310;BME280;36207;51.850;21.698;2023-03-25T05:16:43;98773.06;;;8.60;75.72
50310;BME280;36207;51.850;21.698;2023-03-25T05:19:09;98776.95;;;8.60;75.89
50310;BME280;36207;51.850;21.698;2023-03-25T05:21:37;98777.83;;;8.63;75.87
50310;BME280;36207;51.850;21.698;2023-03-25T05:24:04;98791.74;;;8.71;76.22
50310;BME280;36207;51.850;21.698;2023-03-25T05:26:34;98792.04;;;8.81;76.28
50310;BME280;36207;51.850;21.698;2023-03-25T05:29:03;98787.27;;;8.89;76.45
50310;BME280;36207;51.850;21.698;2023-03-25T05:31:30;98782.59;;;9.03;76.70
50310;BME280;36207;51.850;21.698;2023-03-25T05:33:56;98775.52;;;9.17;76.79
50310;BME280;36207;51.850;21.698;2023-03-25T05:36:22;98777.80;;;9.31;76.90
50310;BME280;36207;51.850;21.698;2023-03-25T05:38:53;98776.66;;;9.46;76.90
50310;BME280;36207;51.850;21.698;2023-03-25T05:41:20;98774.67;;;9.58;76.82
50310;BME280;36207;51.850;21.698;2023-03-25T05:43:48;98772.79;;;9.69;76.65
50310;BME280;36207;51.850;21.698;2023-03-25T05:46:16;98768.77;;;9.78;76.70
50310;BME280;36207;51.850;21.698;2023-03-25T05:48:44;98770.95;;;9.82;76.50
50310;BME280;36207;51.850;21.698;2023-03-25T05:51:12;98772.67;;;9.87;76.43
50310;BME280;36207;51.850;21.698;2023-03-25T05:53:41;98770.58;;;9.90;76.38
50310;BME280;36207;51.850;21.698;2023-03-25T05:56:09;98773.02;;;9.92;76.34
50310;BME280;36207;51.850;21.698;2023-03-25T05:58:36;98776.16;;;9.91;76.23
50310;BME280;36207;51.850;21.698;2023-03-25T06:01:03;98770.95;;;9.89;76.16
50310;BME280;36207;51.850;21.698;2023-03-25T06:03:29;98767.30;;;9.88;76.21
50310;BME280;36207;51.850;21.698;2023-03-25T06:06:00;98769.55;;;9.86;76.20
50310;BME280;36207;51.850;21.698;2023-03-25T06:08:30;98769.55;;;9.86;76.36
50310;BME280;36207;51.850;21.698;2023-03-25T06:10:57;98764.43;;;9.87;76.34
50310;BME280;36207;51.850;21.698;2023-03-25T06:13:24;98763.61;;;9.90;76.39
50310;BME280;36207;51.850;21.698;2023-03-25T06:15:50;98767.42;;;9.94;76.46
50310;BME280;36207;51.850;21.698;2023-03-25T06:18:23;98771.70;;;9.95;76.50
50310;BME280;36207;51.850;21.698;2023-03-25T06:20:51;98773.83;;;9.97;76.39
50310;BME280;36207;51.850;21.698;2023-03-25T06:23:19;98774.33;;;9.97;76.47
50310;BME280;36207;51.850;21.698;2023-03-25T06:25:49;98775.23;;;9.97;76.31
50310;BME280;36207;51.850;21.698;2023-03-25T06:28:16;98777.69;;;10.01;76.52
50310;BME280;36207;51.850;21.698;2023-03-25T06:30:46;98778.58;;;10.03;76.49
50310;BME280;36207;51.850;21.698;2023-03-25T06:33:15;98778.86;;;10.08;76.58
50310;BME280;36207;51.850;21.698;2023-03-25T06:35:46;98785.35;;;10.13;76.62
50310;BME280;36207;51.850;21.698;2023-03-25T06:38:18;98790.48;;;10.16;76.53
50310;BME280;36207;51.850;21.698;2023-03-25T06:40:44;98793.15;;;10.17;76.81
50310;BME280;36207;51.850;21.698;2023-03-25T06:43:13;98798.68;;;10.22;76.78
50310;BME280;36207;51.850;21.698;2023-03-25T06:45:39;98801.29;;;10.26;76.93
50310;BME280;36207;51.850;21.698;2023-03-25T06:48:05;98805.30;;;10.32;77.11
50310;BME280;36207;51.850;21.698;2023-03-25T06:50:31;98809.33;;;10.37;76.91
50310;BME280;36207;51.850;21.698;2023-03-25T06:52:57;98812.20;;;10.41;76.93
50310;BME280;36207;51.850;21.698;2023-03-25T06:55:23;98803.66;;;10.43;76.90
50310;BME280;36207;51.850;21.698;2023-03-25T06:57:53;98803.03;;;10.49;77.04
50310;BME280;36207;51.850;21.698;2023-03-25T07:00:20;98798.75;;;10.56;76.96
50310;BME280;36207;51.850;21.698;2023-03-25T07:02:48;98801.11;;;10.62;76.91
50310;BME280;36207;51.850;21.698;2023-03-25T07:05:16;98801.73;;;10.65;77.05
50310;BME280;36207;51.850;21.698;2023-03-25T07:07:42;98799.54;;;10.69;76.96
50310;BME280;36207;51.850;21.698;2023-03-25T07:10:11;98798.25;;;10.74;76.90
50310;BME280;36207;51.850;21.698;2023-03-25T07:12:40;98795.69;;;10.80;77.06
50310;BME280;36207;51.850;21.698;2023-03-25T07:15:06;98796.45;;;10.86;77.07
50310;BME280;36207;51.850;21.698;2023-03-25T07:17:33;98795.85;;;10.90;77.02
50310;BME280;36207;51.850;21.698;2023-03-25T07:19:59;98796.88;;;10.93;76.85
50310;BME280;36207;51.850;21.698;2023-03-25T07:22:25;98793.83;;;10.94;76.81
50310;BME280;36207;51.850;21.698;2023-03-25T07:24:51;98788.96;;;10.98;76.82
50310;BME280;36207;51.850;21.698;2023-03-25T07:27:17;98796.21;;;11.04;77.10
50310;BME280;36207;51.850;21.698;2023-03-25T07:29:43;98793.14;;;11.13;77.25
50310;BME280;36207;51.850;21.698;2023-03-25T07:32:09;98796.15;;;11.20;76.97
50310;BME280;36207;51.850;21.698;2023-03-25T07:34:35;98799.29;;;11.25;76.95
50310;BME280;36207;51.850;21.698;2023-03-25T07:37:01;98799.86;;;11.28;76.81
50310;BME280;36207;51.850;21.698;2023-03-25T07:39:28;98800.97;;;11.34;76.88
50310;BME280;36207;51.850;21.698;2023-03-25T07:41:54;98796.89;;;11.43;76.91
50310;BME280;36207;51.850;21.698;2023-03-25T07:44:20;98796.72;;;11.52;76.98
50310;BME280;36207;51.850;21.698;2023-03-25T07:46:46;98794.34;;;11.59;76.90
50310;BME280;36207;51.850;21.698;2023-03-25T07:49:13;98797.56;;;11.62;76.64
50310;BME280;36207;51.850;21.698;2023-03-25T07:51:39;98796.30;;;11.65;76.56
50310;BME280;36207;51.850;21.698;2023-03-25T07:54:05;98794.40;;;11.69;76.47
50310;BME280;36207;51.850;21.698;2023-03-25T07:56:31;98795.60;;;11.73;76.57
50310;BME280;36207;51.850;21.698;2023-03-25T07:58:57;98796.23;;;11.77;76.48
50310;BME280;36207;51.850;21.698;2023-03-25T08:01:23;98793.91;;;11.77;76.38
50310;BME280;36207;51.850;21.698;2023-03-25T08:03:49;98795.06;;;11.79;76.28
50310;BME280;36207;51.850;21.698;2023-03-25T08:06:14;98794.09;;;11.78;76.35
50310;BME280;36207;51.850;21.698;2023-03-25T08:08:40;98795.23;;;11.79;76.14
50310;BME280;36207;51.850;21.698;2023-03-25T08:11:07;98795.50;;;11.81;76.30
50310;BME280;36207;51.850;21.698;2023-03-25T08:13:33;98790.84;;;11.83;76.05
50310;BME280;36207;51.850;21.698;2023-03-25T08:15:59;98789.63;;;11.89;76.27
50310;BME280;36207;51.850;21.698;2023-03-25T08:18:25;98791.50;;;11.93;76.21
50310;BME280;36207;51.850;21.698;2023-03-25T08:20:51;98789.73;;;11.98;76.16
50310;BME280;36207;51.850;21.698;2023-03-25T08:23:19;98790.90;;;12.00;76.13
50310;BME280;36207;51.850;21.698;2023-03-25T08:25:46;98791.85;;;11.99;75.87
50310;BME280;36207;51.850;21.698;2023-03-25T08:28:17;98793.92;;;12.02;75.91
50310;BME280;36207;51.850;21.698;2023-03-25T08:30:47;98795.44;;;12.09;76.00
50310;BME280;36207;51.850;21.698;2023-03-25T08:33:14;98802.41;;;12.17;76.08
50310;BME280;36207;51.850;21.698;2023-03-25T08:35:41;98801.04;;;12.24;76.09
50310;BME280;36207;51.850;21.698;2023-03-25T08:38:07;98801.49;;;12.32;76.26
50310;BME280;36207;51.850;21.698;2023-03-25T08:40:35;98803.18;;;12.38;76.01
50310;BME280;36207;51.850;21.698;2023-03-25T08:43:05;98801.65;;;12.42;75.75
50310;BME280;36207;51.850;21.698;2023-03-25T08:45:32;98800.10;;;12.45;75.69
50310;BME280;36207;51.850;21.698;2023-03-25T08:47:59;98793.23;;;12.48;75.67
50310;BME280;36207;51.850;21.698;2023-03-25T08:50:26;98789.75;;;12.54;75.68
50310;BME280;36207;51.850;21.698;2023-03-25T08:52:52;98791.65;;;12.58;75.59
50310;BME280;36207;51.850;21.698;2023-03-25T08:55:22;98794.58;;;12.62;75.63
50310;BME280;36207;51.850;21.698;2023-03-25T08:57:48;98793.39;;;12.65;75.45
50310;BME280;36207;51.850;21.698;2023-03-25T09:00:18;98790.84;;;12.65;75.00
50310;BME280;36207;51.850;21.698;2023-03-25T09:02:48;98791.38;;;12.65;74.87
50310;BME280;36207;51.850;21.698;2023-03-25T09:05:15;98795.20;;;12.66;74.88
50310;BME280;36207;51.850;21.698;2023-03-25T09:07:41;98799.27;;;12.67;74.73
50310;BME280;36207;51.850;21.698;2023-03-25T09:10:08;98803.69;;;12.70;74.80
50310;BME280;36207;51.850;21.698;2023-03-25T09:12:34;98799.40;;;12.68;74.63
50310;BME280;36207;51.850;21.698;2023-03-25T09:15:00;98793.36;;;12.71;74.70
50310;BME280;36207;51.850;21.698;2023-03-25T09:17:26;98792.94;;;12.75;74.73
50310;BME280;36207;51.850;21.698;2023-03-25T09:19:52;98789.39;;;12.80;74.47
50310;BME280;36207;51.850;21.698;2023-03-25T09:22:17;98791.33;;;12.84;74.36
50310;BME280;36207;51.850;21.698;2023-03-25T09:24:44;98789.88;;;12.89;74.36
50310;BME280;36207;51.850;21.698;2023-03-25T09:27:10;98782.77;;;12.93;74.13
50310;BME280;36207;51.850;21.698;2023-03-25T09:29:36;98783.48;;;13.00;74.11
50310;BME280;36207;51.850;21.698;2023-03-25T09:32:02;98780.98;;;13.04;74.07
50310;BME280;36207;51.850;21.698;2023-03-25T09:34:28;98776.92;;;13.09;74.07
50310;BME280;36207;51.850;21.698;2023-03-25T09:36:54;98768.55;;;13.14;73.63
50310;BME280;36207;51.850;21.698;2023-03-25T09:39:20;98767.38;;;13.18;73.66
50310;BME280;36207;51.850;21.698;2023-03-25T09:50:38;98763.09;;;13.35;73.06
50310;BME280;36207;51.850;21.698;2023-03-25T09:55:40;98758.83;;;13.44;72.45
50310;BME280;36207;51.850;21.698;2023-03-25T10:00:50;98751.81;;;13.61;72.12
50310;BME280;36207;51.850;21.698;2023-03-25T10:03:31;98748.37;;;13.70;72.34
50310;BME280;36207;51.850;21.698;2023-03-25T10:06:15;98744.33;;;13.78;72.03
50310;BME280;36207;51.850;21.698;2023-03-25T10:08:59;98740.69;;;13.82;71.36
50310;BME280;36207;51.850;21.698;2023-03-25T10:25:24;98748.77;;;13.95;70.32
50310;BME280;36207;51.850;21.698;2023-03-25T10:27:53;98751.65;;;13.98;70.20
50310;BME280;36207;51.850;21.698;2023-03-25T10:30:32;98747.16;;;14.00;69.97
50310;BME280;36207;51.850;21.698;2023-03-25T10:33:19;98739.25;;;13.98;70.07
50310;BME280;36207;51.850;21.698;2023-03-25T10:35:47;98736.09;;;13.99;69.71
50310;BME280;36207;51.850;21.698;2023-03-25T10:38:21;98735.67;;;14.00;69.56
50310;BME280;36207;51.850;21.698;2023-03-25T10:41:10;98739.56;;;13.98;68.75
50310;BME280;36207;51.850;21.698;2023-03-25T10:43:39;98735.07;;;13.94;68.53
50310;BME280;36207;51.850;21.698;2023-03-25T10:46:32;98732.43;;;13.94;68.95
50310;BME280;36207;51.850;21.698;2023-03-25T10:49:02;98731.85;;;13.97;68.81
50310;BME280;36207;51.850;21.698;2023-03-25T10:51:30;98728.78;;;13.96;67.84
50310;BME280;36207;51.850;21.698;2023-03-25T10:53:57;98726.11;;;13.97;68.35
50310;BME280;36207;51.850;21.698;2023-03-25T10:56:26;98727.10;;;14.00;68.63
50310;BME280;36207;51.850;21.698;2023-03-25T10:58:55;98724.92;;;14.03;67.70
50310;BME280;36207;51.850;21.698;2023-03-25T11:01:40;98721.35;;;14.04;67.10
50310;BME280;36207;51.850;21.698;2023-03-25T11:04:12;98718.79;;;14.07;67.78
50310;BME280;36207;51.850;21.698;2023-03-25T11:06:41;98716.16;;;14.13;67.13
50310;BME280;36207;51.850;21.698;2023-03-25T11:09:16;98704.98;;;14.17;67.05
50310;BME280;36207;51.850;21.698;2023-03-25T11:11:48;98704.02;;;14.21;66.70
50310;BME280;36207;51.850;21.698;2023-03-25T11:14:14;98703.61;;;14.22;66.51
50310;BME280;36207;51.850;21.698;2023-03-25T11:16:54;98703.44;;;14.27;66.91
50310;BME280;36207;51.850;21.698;2023-03-25T11:19:26;98701.83;;;14.32;66.80
50310;BME280;36207;51.850;21.698;2023-03-25T11:21:56;98697.42;;;14.37;67.01
50310;BME280;36207;51.850;21.698;2023-03-25T11:24:30;98698.48;;;14.45;67.44
50310;BME280;36207;51.850;21.698;2023-03-25T11:26:57;98698.52;;;14.52;66.72
50310;BME280;36207;51.850;21.698;2023-03-25T11:29:25;98699.35;;;14.52;65.89
50310;BME280;36207;51.850;21.698;2023-03-25T11:31:57;98699.98;;;14.51;65.96
50310;BME280;36207;51.850;21.698;2023-03-25T11:34:24;98693.25;;;14.48;65.58
50310;BME280;36207;51.850;21.698;2023-03-25T11:39:35;98690.13;;;14.49;65.68
50310;BME280;36207;51.850;21.698;2023-03-25T11:42:39;98683.05;;;14.55;66.11
50310;BME280;36207;51.850;21.698;2023-03-25T11:45:19;98679.33;;;14.64;66.27
50310;BME280;36207;51.850;21.698;2023-03-25T11:47:45;98671.23;;;14.71;66.47
50310;BME280;36207;51.850;21.698;2023-03-25T11:50:26;98668.75;;;14.78;66.71
50310;BME280;36207;51.850;21.698;2023-03-25T11:53:00;98665.66;;;14.84;66.65
50310;BME280;36207;51.850;21.698;2023-03-25T11:55:36;98662.36;;;14.88;66.54
50310;BME280;36207;51.850;21.698;2023-03-25T11:58:13;98665.66;;;14.86;65.65
50310;BME280;36207;51.850;21.698;2023-03-25T12:00:41;98661.51;;;14.82;65.60
50310;BME280;36207;51.850;21.698;2023-03-25T12:05:39;98655.12;;;14.73;65.27
50310;BME280;36207;51.850;21.698;2023-03-25T12:08:17;98655.41;;;14.75;66.00
50310;BME280;36207;51.850;21.698;2023-03-25T12:10:53;98646.98;;;14.78;65.71
50310;BME280;36207;51.850;21.698;2023-03-25T12:13:42;98641.39;;;14.81;65.81
50310;BME280;36207;51.850;21.698;2023-03-25T12:16:29;98641.86;;;14.83;65.98
50310;BME280;36207;51.850;21.698;2023-03-25T12:19:27;98633.63;;;14.86;66.21
50310;BME280;36207;51.850;21.698;2023-03-25T12:30:54;98623.91;;;14.84;65.96
50310;BME280;36207;51.850;21.698;2023-03-25T12:47:00;98595.38;;;14.79;65.46
50310;BME280;36207;51.850;21.698;2023-03-25T12:57:54;98582.45;;;14.91;65.41
50310;BME280;36207;51.850;21.698;2023-03-25T13:08:13;98574.89;;;15.08;64.35
50310;BME280;36207;51.850;21.698;2023-03-25T13:10:54;98570.87;;;15.15;64.78
50310;BME280;36207;51.850;21.698;2023-03-25T13:13:23;98570.08;;;15.19;64.01
50310;BME280;36207;51.850;21.698;2023-03-25T13:16:16;98558.48;;;15.18;63.86
50310;BME280;36207;51.850;21.698;2023-03-25T13:19:09;98557.39;;;15.13;63.38
50310;BME280;36207;51.850;21.698;2023-03-25T13:21:39;98560.10;;;15.08;62.68
50310;BME280;36207;51.850;21.698;2023-03-25T13:26:52;98563.53;;;14.92;60.29
50310;BME280;36207;51.850;21.698;2023-03-25T13:29:29;98559.48;;;14.81;60.91
50310;BME280;36207;51.850;21.698;2023-03-25T13:32:01;98561.27;;;14.73;61.37
50310;BME280;36207;51.850;21.698;2023-03-25T13:34:33;98573.46;;;14.64;60.52
50310;BME280;36207;51.850;21.698;2023-03-25T13:37:44;98622.45;;;14.50;59.38
50310;BME280;36207;51.850;21.698;2023-03-25T13:40:36;98644.54;;;14.08;58.41
50310;BME280;36207;51.850;21.698;2023-03-25T13:43:05;98644.33;;;13.65;60.43
50310;BME280;36207;51.850;21.698;2023-03-25T13:45:43;98648.67;;;13.32;61.82
50310;BME280;36207;51.850;21.698;2023-03-25T13:48:18;98648.80;;;13.02;62.64
50310;BME280;36207;51.850;21.698;2023-03-25T13:50:48;98650.42;;;12.80;63.26
50310;BME280;36207;51.850;21.698;2023-03-25T13:53:35;98647.95;;;12.58;63.36
50310;BME280;36207;51.850;21.698;2023-03-25T14:12:30;98602.73;;;11.98;65.98
50310;BME280;36207;51.850;21.698;2023-03-25T14:15:22;98601.08;;;12.11;66.07
50310;BME280;36207;51.850;21.698;2023-03-25T14:17:49;98593.77;;;12.25;65.92
50310;BME280;36207;51.850;21.698;2023-03-25T14:20:23;98592.77;;;12.37;65.98
50310;BME280;36207;51.850;21.698;2023-03-25T14:23:01;98593.40;;;12.43;65.76
50310;BME280;36207;51.850;21.698;2023-03-25T14:25:45;98593.16;;;12.42;65.46
50310;BME280;36207;51.850;21.698;2023-03-25T14:28:41;98594.87;;;12.40;65.43
50310;BME280;36207;51.850;21.698;2023-03-25T14:41:59;98592.80;;;12.21;65.93
50310;BME280;36207;51.850;21.698;2023-03-25T14:44:28;98599.42;;;12.21;65.96
50310;BME280;36207;51.850;21.698;2023-03-25T14:52:58;98608.14;;;12.12;66.18
50310;BME280;36207;51.850;21.698;2023-03-25T14:55:31;98606.56;;;12.05;66.46
50310;BME280;36207;51.850;21.698;2023-03-25T14:58:04;98608.81;;;11.99;66.42
50310;BME280;36207;51.850;21.698;2023-03-25T15:00:34;98609.02;;;11.96;66.65
50310;BME280;36207;51.850;21.698;2023-03-25T15:03:31;98607.60;;;11.93;67.61
50310;BME280;36207;51.850;21.698;2023-03-25T15:05:58;98608.95;;;11.94;67.38
50310;BME280;36207;51.850;21.698;2023-03-25T15:08:35;98606.77;;;11.95;67.52
50310;BME280;36207;51.850;21.698;2023-03-25T15:11:07;98605.91;;;11.98;67.58
50310;BME280;36207;51.850;21.698;2023-03-25T15:13:39;98602.63;;;12.00;67.62
50310;BME280;36207;51.850;21.698;2023-03-25T15:16:16;98601.82;;;12.02;67.80
50310;BME280;36207;51.850;21.698;2023-03-25T15:26:47;98610.09;;;12.03;68.23
50310;BME280;36207;51.850;21.698;2023-03-25T15:29:26;98602.38;;;12.01;68.56
50310;BME280;36207;51.850;21.698;2023-03-25T15:35:13;98603.78;;;12.03;68.78
50310;BME280;36207;51.850;21.698;2023-03-25T15:44:02;98597.06;;;12.00;69.03
50310;BME280;36207;51.850;21.698;2023-03-25T15:55:19;98595.75;;;11.94;69.76
50310;BME280;36207;51.850;21.698;2023-03-25T15:57:55;98602.88;;;11.89;69.70
50310;BME280;36207;51.850;21.698;2023-03-25T16:00:36;98603.80;;;11.86;69.65
50310;BME280;36207;51.850;21.698;2023-03-25T16:03:12;98606.21;;;11.88;69.68
50310;BME280;36207;51.850;21.698;2023-03-25T16:05:46;98608.60;;;11.87;69.77